الصفحة الرئيسية
METAR-TAF:

METAR-TAF

مطار :

Båtsfjord, النرويج

دائرة عرض: 70-38N, خط طول: 029-44E, ارتفاع: 10 متر

مراقبة الطقس الحالي

تاريخ ووقت الإصدار 16 دقيقة قبل الساعة 04:50UTC
ريح 17 عقدة من الجنوب/الجنوب الغربي
درجة الحرارة 15°درجة مئوية
الرطوبة 63%
ضغط 1015 hPa
الرؤية 10 كم أو أكثر

METAR: ENBS 140450Z AUTO 20017KT 9999 NCD 15/08 Q1015

زمن: 07:06 (05:06 UTC)


TAF: مفقودة

أرصاد الطقس والتوقعات من أكثر من 4000 مطار (تقارير الطقس للمطار METAR والتنبؤ بالطقس بالمطارTAF).

المحطات المتاحة هي النقط الصفراء والحمراء على الخريطة.

حرك المؤشر فوق النقطة لمعرفة اسم المحطة.

ثم انقر لمعرفة أرصاد وتوقعات الطقس.

لتغيير الخارطة: اضغط على الأزرار الخضراء مع رمز الصليب الأسود للتكبير. على الزر الأخضر مع شرطة للتصغير، أو على الأسهم الخضراء للخرائط المجاورة.


METAR-TAF: